Time;durP1;ratioP1;P1;durP2;ratioP2;P2;SDS_P1;SDS_P2;PMS_P1;PMS_P2;Temp;Humidity;BMP_temperature;BMP_pressure;BME280_temperature;BME280_humidity;BME280_pressure;Samples;Min_cycle;Max_cycle;Signal;HPM_P1;HPM_P2
2022/11/24 00:00:35;;;;;;;16.70;14.90;;;6.50;99.90;;;;;;6256495;28;20436;-62
2022/11/24 00:03:40;;;;;;;21.60;16.40;;;6.40;99.90;;;;;;6258643;28;20454;-62
2022/11/24 00:06:43;;;;;;;20.07;16.37;;;6.40;99.90;;;;;;6257297;28;20943;-62
2022/11/24 00:09:46;;;;;;;19.20;15.23;;;6.30;99.90;;;;;;6258419;28;20474;-62
2022/11/24 00:12:49;;;;;;;16.73;13.40;;;6.30;99.90;;;;;;6257210;28;20463;-62
2022/11/24 00:15:53;;;;;;;18.93;15.00;;;6.20;99.90;;;;;;6255297;28;20470;-62
2022/11/24 00:18:59;;;;;;;23.13;16.10;;;6.10;99.90;;;;;;6255269;28;20483;-63
2022/11/24 00:22:02;;;;;;;14.87;13.20;;;6.10;99.90;;;;;;6254606;28;20482;-63
2022/11/24 00:25:06;;;;;;;17.00;15.27;;;6.10;99.90;;;;;;6280999;28;20794;-62
2022/11/24 00:28:09;;;;;;;20.17;15.90;;;6.20;99.90;;;;;;6279874;28;20481;-62
2022/11/24 00:31:18;;;;;;;18.63;15.73;;;6.20;99.90;;;;;;6278681;28;20927;-62
2022/11/24 00:34:22;;;;;;;42.30;16.70;;;6.20;99.90;;;;;;6277973;28;20628;-63
2022/11/24 00:37:26;;;;;;;18.00;14.17;;;6.10;99.90;;;;;;6252878;28;20471;-62
2022/11/24 00:40:29;;;;;;;18.00;15.63;;;6.00;99.90;;;;;;6251604;28;20525;-62
2022/11/24 00:43:37;;;;;;;26.00;15.77;;;5.90;99.90;;;;;;6250837;28;20475;-62
2022/11/24 00:46:40;;;;;;;29.00;15.13;;;5.70;99.90;;;;;;6252127;28;20471;-64
2022/11/24 00:49:44;;;;;;;17.50;14.43;;;5.70;99.90;;;;;;6249284;28;20479;-63
2022/11/24 00:52:48;;;;;;;26.03;14.53;;;5.70;99.90;;;;;;6252401;28;20486;-63
2022/11/24 00:55:51;;;;;;;19.23;14.37;;;5.60;99.90;;;;;;6276045;28;20497;-63
2022/11/24 00:58:55;;;;;;;29.00;20.47;;;5.60;99.90;;;;;;6277374;28;20947;-63
2022/11/24 01:01:58;;;;;;;22.33;17.77;;;5.70;99.90;;;;;;6273361;28;20478;-63
2022/11/24 01:05:02;;;;;;;18.07;15.20;;;5.60;99.90;;;;;;6265193;28;20481;-63
2022/11/24 01:08:06;;;;;;;16.47;13.57;;;5.60;99.90;;;;;;6267220;28;20470;-63
2022/11/24 01:11:11;;;;;;;15.90;14.20;;;5.50;99.90;;;;;;6263499;28;20931;-63
2022/11/24 01:14:14;;;;;;;18.93;13.97;;;5.50;99.90;;;;;;6260040;28;20818;-63
2022/11/24 01:17:18;;;;;;;15.20;12.50;;;5.60;99.90;;;;;;6263546;28;20485;-63
2022/11/24 01:20:22;;;;;;;17.40;14.07;;;5.60;99.90;;;;;;6261062;28;20486;-63
2022/11/24 01:23:25;;;;;;;32.43;13.40;;;5.60;99.90;;;;;;6267640;28;20470;-63
2022/11/24 01:26:29;;;;;;;17.07;13.77;;;5.60;99.90;;;;;;6277399;28;20474;-63
2022/11/24 01:29:32;;;;;;;26.80;14.73;;;5.40;99.90;;;;;;6277433;28;20474;-64
2022/11/24 01:32:36;;;;;;;33.60;14.67;;;5.50;99.90;;;;;;6277724;28;20481;-63
2022/11/24 01:35:40;;;;;;;24.43;14.47;;;5.60;99.90;;;;;;6264787;28;20475;-62
2022/11/24 01:38:43;;;;;;;18.30;16.30;;;5.60;99.90;;;;;;6253321;28;20487;-62
2022/11/24 01:41:47;;;;;;;16.77;13.40;;;5.70;99.90;;;;;;6252913;28;20486;-62
2022/11/24 01:45:13;;;;;;;17.50;13.47;;;5.80;99.90;;;;;;6252955;28;20471;-63
2022/11/24 01:48:23;;;;;;;15.43;13.73;;;5.80;99.90;;;;;;6251551;28;20916;-62
2022/11/24 01:51:34;;;;;;;17.30;14.00;;;5.90;99.90;;;;;;6251587;28;20476;-63
2022/11/24 01:54:41;;;;;;;13.00;11.60;;;5.90;99.90;;;;;;6250893;28;21131;-62
2022/11/24 01:57:49;;;;;;;16.90;12.27;;;6.00;99.90;;;;;;6251553;28;20916;-62
2022/11/24 02:00:53;;;;;;;17.37;12.57;;;5.90;99.90;;;;;;6251341;28;20474;-62
2022/11/24 02:03:57;;;;;;;16.00;12.00;;;5.90;99.90;;;;;;6251252;28;20463;-63
2022/11/24 02:07:03;;;;;;;18.67;11.80;;;5.90;99.90;;;;;;6251063;28;20467;-62
2022/11/24 02:10:10;;;;;;;15.57;10.37;;;5.90;99.90;;;;;;6251712;28;20487;-63
2022/11/24 02:13:15;;;;;;;21.07;11.27;;;5.80;99.90;;;;;;6251322;28;20482;-63
2022/11/24 02:16:18;;;;;;;12.17;10.93;;;5.70;99.90;;;;;;6251061;28;20476;-62
2022/11/24 02:19:34;;;;;;;15.63;10.13;;;5.70;99.90;;;;;;6251971;28;20549;-63
2022/11/24 02:22:46;;;;;;;19.33;11.07;;;5.50;99.90;;;;;;6255696;28;20481;-63
2022/11/24 02:25:58;;;;;;;11.50;9.70;;;5.50;99.90;;;;;;6276710;28;20474;-63
2022/11/24 02:29:03;;;;;;;13.63;9.63;;;5.50;99.90;;;;;;6276457;28;20466;-63
2022/11/24 02:32:08;;;;;;;13.47;10.40;;;5.50;99.90;;;;;;6276041;28;20482;-63
2022/11/24 02:35:12;;;;;;;12.90;9.90;;;5.40;99.90;;;;;;6266638;28;20475;-62
2022/11/24 02:38:15;;;;;;;12.87;10.60;;;5.30;99.90;;;;;;6251480;28;20885;-63
2022/11/24 02:41:23;;;;;;;11.87;10.30;;;5.20;99.90;;;;;;6251629;28;20502;-63
2022/11/24 02:44:32;;;;;;;11.37;10.10;;;5.20;99.90;;;;;;6256840;28;20472;-63
2022/11/24 02:47:36;;;;;;;11.90;10.70;;;5.20;99.90;;;;;;6259787;28;20481;-63
2022/11/24 02:50:39;;;;;;;12.70;10.93;;;5.20;99.90;;;;;;6259219;28;20475;-63
2022/11/24 02:53:42;;;;;;;14.07;12.03;;;5.20;99.90;;;;;;6258791;28;20482;-63
2022/11/24 02:56:45;;;;;;;13.47;10.33;;;5.20;99.90;;;;;;6259690;28;20505;-63
2022/11/24 02:59:50;;;;;;;13.60;10.07;;;5.20;99.90;;;;;;6249560;28;20483;-63
2022/11/24 03:02:53;;;;;;;11.77;10.30;;;5.30;99.90;;;;;;6259267;28;20483;-63
2022/11/24 03:05:56;;;;;;;12.93;10.80;;;5.30;99.90;;;;;;6258830;28;20486;-62
2022/11/24 03:08:59;;;;;;;13.37;12.00;;;5.30;99.90;;;;;;6258667;28;20481;-63
2022/11/24 03:12:03;;;;;;;12.77;11.33;;;5.30;99.90;;;;;;6259059;28;20950;-64
2022/11/24 03:15:08;;;;;;;12.40;10.77;;;5.40;99.90;;;;;;6258409;28;20483;-63
2022/11/24 03:18:11;;;;;;;12.33;11.13;;;5.50;99.90;;;;;;6259039;28;20800;-64
2022/11/24 03:21:14;;;;;;;12.10;10.80;;;5.60;99.90;;;;;;6259419;28;20467;-64
2022/11/24 03:24:17;;;;;;;12.40;10.97;;;5.50;99.90;;;;;;6277119;28;20480;-63
2022/11/24 03:27:21;;;;;;;12.30;10.30;;;5.60;99.90;;;;;;6283968;28;20466;-63
2022/11/24 03:30:25;;;;;;;11.20;10.17;;;5.50;99.90;;;;;;6283772;28;20453;-64
2022/11/24 03:33:29;;;;;;;11.33;10.23;;;5.50;99.90;;;;;;6283351;28;20442;-63
2022/11/24 03:36:32;;;;;;;12.07;10.93;;;5.50;99.90;;;;;;6262622;28;20462;-63
2022/11/24 03:39:35;;;;;;;13.30;10.40;;;5.50;99.90;;;;;;6258761;28;20439;-63
2022/11/24 03:42:39;;;;;;;25.73;11.40;;;5.50;99.90;;;;;;6258118;28;20465;-63
2022/11/24 03:45:47;;;;;;;11.13;10.03;;;5.30;99.90;;;;;;6257447;28;20483;-63
2022/11/24 03:48:50;;;;;;;13.40;10.53;;;5.20;99.90;;;;;;6257868;28;20477;-63
2022/11/24 03:51:53;;;;;;;12.30;10.63;;;5.20;99.90;;;;;;6259051;28;20473;-63
2022/11/24 03:54:56;;;;;;;9.73;8.83;;;5.10;99.90;;;;;;6255949;28;20466;-64
2022/11/24 03:57:59;;;;;;;14.30;11.77;;;5.10;99.90;;;;;;6255467;28;20467;-64
2022/11/24 04:01:04;;;;;;;12.93;10.00;;;5.20;99.90;;;;;;6249710;28;20489;-63
2022/11/24 04:04:09;;;;;;;19.00;11.30;;;5.20;99.90;;;;;;6252944;28;20478;-63
2022/11/24 04:07:13;;;;;;;11.30;10.20;;;5.10;99.90;;;;;;6253648;28;20472;-64
2022/11/24 04:10:16;;;;;;;14.17;9.80;;;5.10;99.90;;;;;;6254178;28;20471;-64
2022/11/24 04:13:20;;;;;;;12.97;11.60;;;5.20;99.90;;;;;;6253686;28;20463;-64
2022/11/24 04:16:25;;;;;;;12.23;10.90;;;5.20;99.90;;;;;;6254132;28;20482;-63
2022/11/24 04:19:28;;;;;;;12.77;10.80;;;5.20;99.90;;;;;;6253429;28;20567;-63
2022/11/24 04:22:31;;;;;;;13.97;12.00;;;5.30;99.90;;;;;;6256509;28;20950;-63
2022/11/24 04:25:34;;;;;;;16.47;12.70;;;5.30;99.90;;;;;;6278404;28;20482;-63
2022/11/24 04:28:37;;;;;;;14.70;12.57;;;5.30;99.90;;;;;;6278681;28;20471;-63
2022/11/24 04:31:42;;;;;;;14.43;11.60;;;5.30;99.90;;;;;;6279237;28;20470;-64
2022/11/24 04:34:45;;;;;;;21.20;12.43;;;5.30;99.90;;;;;;6272147;28;21010;-63
2022/11/24 04:37:48;;;;;;;12.70;11.40;;;5.30;99.90;;;;;;6253665;28;20471;-63
2022/11/24 04:40:52;;;;;;;19.13;13.47;;;5.30;99.90;;;;;;6253330;28;20818;-63
2022/11/24 04:43:55;;;;;;;21.90;12.90;;;5.20;99.90;;;;;;6252952;28;20471;-63
2022/11/24 04:46:59;;;;;;;14.50;12.40;;;5.20;99.90;;;;;;6253298;28;20482;-63
2022/11/24 04:50:06;;;;;;;14.50;12.00;;;5.30;99.90;;;;;;6253253;28;20477;-63
2022/11/24 04:53:10;;;;;;;13.77;12.33;;;5.40;99.90;;;;;;6252887;28;20498;-63
2022/11/24 04:56:13;;;;;;;18.20;13.00;;;5.40;99.90;;;;;;6252405;28;20979;-63
2022/11/24 04:59:16;;;;;;;20.77;15.40;;;5.40;99.90;;;;;;6253249;28;20467;-63
2022/11/24 05:02:21;;;;;;;16.70;13.90;;;5.50;99.90;;;;;;6252628;28;20525;-63
2022/11/24 05:05:24;;;;;;;14.97;12.90;;;5.50;99.90;;;;;;6252604;28;20537;-62
2022/11/24 05:08:28;;;;;;;16.43;14.27;;;5.50;99.90;;;;;;6252023;28;20474;-63
2022/11/24 05:11:31;;;;;;;15.53;12.47;;;5.50;99.90;;;;;;6252878;28;20472;-63
2022/11/24 05:14:34;;;;;;;15.10;13.17;;;5.50;99.90;;;;;;6252514;28;20479;-62
2022/11/24 05:17:39;;;;;;;15.60;13.27;;;5.50;99.90;;;;;;6252060;28;20959;-62
2022/11/24 05:20:44;;;;;;;13.30;11.90;;;5.50;99.90;;;;;;6252615;28;20468;-62
2022/11/24 05:23:47;;;;;;;13.03;11.43;;;5.50;99.90;;;;;;6252184;28;20840;-62
2022/11/24 05:26:50;;;;;;;14.97;11.33;;;5.50;99.90;;;;;;6251997;28;20475;-62
2022/11/24 05:29:53;;;;;;;14.33;12.83;;;5.50;99.90;;;;;;6251845;28;20800;-62
2022/11/24 05:32:58;;;;;;;15.13;12.80;;;5.50;99.90;;;;;;6252002;28;20475;-63
2022/11/24 05:36:03;;;;;;;15.80;14.00;;;5.40;99.90;;;;;;6251506;28;20494;-62
2022/11/24 05:39:07;;;;;;;14.03;12.60;;;5.40;99.90;;;;;;6251984;28;20479;-63
2022/11/24 05:45:31;;;;;;;13.97;11.70;;;5.40;99.90;;;;;;6251411;28;20467;-62
2022/11/24 05:48:35;;;;;;;12.43;11.23;;;5.40;99.90;;;;;;6251604;28;20447;-63
2022/11/24 05:51:38;;;;;;;11.73;10.53;;;5.30;99.90;;;;;;6251095;28;20775;-62
2022/11/24 05:54:41;;;;;;;12.00;10.80;;;5.40;99.90;;;;;;6251310;28;20823;-62
2022/11/24 05:57:45;;;;;;;12.10;10.90;;;5.40;99.90;;;;;;6251324;28;20463;-63
2022/11/24 06:00:48;;;;;;;12.87;11.60;;;5.40;99.90;;;;;;6251048;28;20459;-63
2022/11/24 06:03:52;;;;;;;10.63;9.57;;;5.40;99.90;;;;;;6251745;28;20471;-62
2022/11/24 06:06:55;;;;;;;10.97;9.97;;;5.40;99.90;;;;;;6251304;28;20470;-63
2022/11/24 06:09:58;;;;;;;15.77;10.87;;;5.40;99.90;;;;;;6250928;28;20501;-63
2022/11/24 06:13:05;;;;;;;11.60;9.50;;;5.50;99.90;;;;;;6250911;28;20546;-63
2022/11/24 06:16:08;;;;;;;13.90;10.87;;;5.40;99.90;;;;;;6250746;28;20494;-62
2022/11/24 06:19:13;;;;;;;11.13;10.00;;;5.40;99.90;;;;;;6250125;28;20591;-62
2022/11/24 06:22:17;;;;;;;11.00;9.90;;;5.40;99.90;;;;;;6251453;28;20474;-62
2022/11/24 06:25:20;;;;;;;9.17;8.33;;;5.50;99.90;;;;;;6275699;28;20479;-62
2022/11/24 06:28:24;;;;;;;9.67;8.17;;;5.50;99.90;;;;;;6275418;28;20466;-62
2022/11/24 06:31:27;;;;;;;12.70;10.90;;;5.50;99.90;;;;;;6275051;28;20474;-63
2022/11/24 06:34:31;;;;;;;11.37;9.77;;;5.50;99.90;;;;;;6270870;28;20499;-62
2022/11/24 06:37:36;;;;;;;12.23;10.97;;;5.50;99.90;;;;;;6250662;28;20467;-64
2022/11/24 06:40:39;;;;;;;11.40;9.73;;;5.50;99.90;;;;;;6250227;28;20471;-64
2022/11/24 06:43:42;;;;;;;13.60;10.87;;;5.40;99.90;;;;;;6249984;28;20471;-63
2022/11/24 06:46:45;;;;;;;15.70;13.03;;;5.40;99.90;;;;;;6250462;28;20463;-63
2022/11/24 06:49:50;;;;;;;18.57;13.67;;;5.40;99.90;;;;;;6250040;28;20482;-63
2022/11/24 06:52:54;;;;;;;14.80;11.60;;;5.30;99.90;;;;;;6252244;28;20491;-64
2022/11/24 06:55:59;;;;;;;17.00;13.33;;;5.40;99.90;;;;;;6251697;28;20479;-65
2022/11/24 06:59:02;;;;;;;14.80;12.30;;;5.50;99.90;;;;;;6252279;28;20486;-64
2022/11/24 07:02:06;;;;;;;16.13;13.23;;;5.60;99.90;;;;;;6252016;28;21155;-64
2022/11/24 07:05:10;;;;;;;13.90;11.50;;;5.60;99.90;;;;;;6252708;28;20540;-63
2022/11/24 07:08:14;;;;;;;17.63;14.83;;;5.60;99.90;;;;;;6251105;28;20494;-63
2022/11/24 07:11:21;;;;;;;16.13;14.23;;;5.60;99.90;;;;;;6251833;28;20481;-63
2022/11/24 07:14:25;;;;;;;19.83;14.57;;;5.60;99.90;;;;;;6249696;28;20479;-63
2022/11/24 07:17:28;;;;;;;14.47;12.37;;;5.60;99.90;;;;;;6249862;28;20479;-62
2022/11/24 07:20:32;;;;;;;14.50;12.97;;;5.70;99.90;;;;;;6249490;28;20955;-63
2022/11/24 07:23:35;;;;;;;15.17;12.53;;;5.70;99.90;;;;;;6261279;28;20470;-63
2022/11/24 07:26:39;;;;;;;14.30;11.17;;;5.80;99.90;;;;;;6274522;28;20823;-64
2022/11/24 07:29:42;;;;;;;14.73;13.20;;;5.80;99.90;;;;;;6275911;28;20477;-63
2022/11/24 07:32:45;;;;;;;16.00;12.50;;;5.90;99.90;;;;;;6278934;28;20489;-63
2022/11/24 07:35:49;;;;;;;14.70;13.00;;;5.90;99.90;;;;;;6264543;28;20479;-63
2022/11/24 07:38:53;;;;;;;16.53;14.80;;;5.90;99.90;;;;;;6254179;28;20475;-63
2022/11/24 07:41:56;;;;;;;17.10;13.80;;;6.00;99.90;;;;;;6254309;28;20467;-64
2022/11/24 07:44:59;;;;;;;11.70;10.50;;;6.10;99.90;;;;;;6254207;28;20478;-63
2022/11/24 07:48:02;;;;;;;12.07;9.90;;;6.20;99.90;;;;;;6253957;28;20479;-63
2022/11/24 07:51:07;;;;;;;12.73;10.00;;;6.30;99.90;;;;;;6254190;28;20975;-64
2022/11/24 07:54:11;;;;;;;12.50;11.30;;;6.40;99.90;;;;;;6253942;28;20482;-63
2022/11/24 07:57:14;;;;;;;11.90;10.27;;;6.40;99.90;;;;;;6254063;28;20471;-64
2022/11/24 08:00:18;;;;;;;11.03;10.00;;;6.50;99.90;;;;;;6254824;28;20483;-62
2022/11/24 08:03:22;;;;;;;13.83;11.67;;;6.50;99.90;;;;;;6254570;28;20471;-64
2022/11/24 08:06:29;;;;;;;15.70;10.80;;;6.50;99.90;;;;;;6252152;28;20483;-61
2022/11/24 08:09:43;;;;;;;11.63;10.53;;;6.40;99.90;;;;;;6258629;28;20915;-61
2022/11/24 08:12:47;;;;;;;15.57;10.77;;;6.40;99.90;;;;;;6251221;28;20793;-61
2022/11/24 08:15:50;;;;;;;10.43;9.37;;;6.30;99.90;;;;;;6250718;28;20490;-60
2022/11/24 08:18:55;;;;;;;14.37;9.60;;;6.40;99.90;;;;;;6251364;28;20471;-61
2022/11/24 08:21:59;;;;;;;10.33;9.23;;;6.40;99.90;;;;;;6250509;28;21151;-61
2022/11/24 08:25:03;;;;;;;10.60;9.70;;;6.50;99.90;;;;;;6274577;28;20482;-62
2022/11/24 08:28:06;;;;;;;9.83;8.30;;;6.60;99.90;;;;;;6275862;28;20497;-63
2022/11/24 08:31:11;;;;;;;9.53;8.63;;;6.70;99.90;;;;;;6275267;28;20473;-62
2022/11/24 08:34:14;;;;;;;9.93;8.90;;;6.70;99.90;;;;;;6273250;28;21018;-61
2022/11/24 08:37:18;;;;;;;10.30;8.27;;;6.80;99.90;;;;;;6250458;28;20484;-63
2022/11/24 08:40:23;;;;;;;10.77;8.90;;;6.90;99.90;;;;;;6250138;28;20475;-60
2022/11/24 08:43:26;;;;;;;9.07;8.17;;;7.20;99.90;;;;;;6249782;28;20485;-61
2022/11/24 08:46:29;;;;;;;9.67;8.77;;;7.30;99.90;;;;;;6258057;28;20474;-61
2022/11/24 08:49:32;;;;;;;9.13;8.13;;;7.50;99.90;;;;;;6269517;28;20482;-61
2022/11/24 08:52:37;;;;;;;22.00;10.57;;;7.80;99.90;;;;;;6274507;28;20984;-60
2022/11/24 08:55:40;;;;;;;9.00;8.10;;;7.90;99.90;;;;;;6264373;28;20475;-61
2022/11/24 08:58:43;;;;;;;11.07;8.10;;;8.20;99.90;;;;;;6249746;28;20475;-62
2022/11/24 09:01:48;;;;;;;10.53;8.80;;;8.40;99.90;;;;;;6250073;28;20553;-62
2022/11/24 09:04:51;;;;;;;9.47;7.23;;;8.50;99.90;;;;;;6249185;28;20554;-61
2022/11/24 09:07:56;;;;;;;9.83;8.90;;;8.60;99.90;;;;;;6249614;28;20475;-61
2022/11/24 09:11:03;;;;;;;8.67;7.87;;;8.80;99.90;;;;;;6249705;28;20545;-61
2022/11/24 09:14:06;;;;;;;8.83;7.17;;;8.80;99.90;;;;;;6249013;28;20487;-60
2022/11/24 09:17:09;;;;;;;10.73;9.30;;;8.90;99.90;;;;;;6249062;28;20997;-61
2022/11/24 09:20:13;;;;;;;11.50;7.23;;;9.00;99.90;;;;;;6248937;28;20499;-60
2022/11/24 09:23:35;;;;;;;10.97;8.30;;;9.30;99.90;;;;;;6261070;28;20467;-61
2022/11/24 09:26:39;;;;;;;8.87;8.10;;;9.60;99.90;;;;;;6274076;28;20833;-61
2022/11/24 09:29:49;;;;;;;10.43;8.00;;;10.10;99.90;;;;;;6274007;28;20482;-62
2022/11/24 09:32:52;;;;;;;8.53;7.57;;;10.60;99.90;;;;;;6273280;28;20497;-60
2022/11/24 09:35:55;;;;;;;9.03;7.50;;;10.90;99.90;;;;;;6273244;28;20478;-62
2022/11/24 09:39:00;;;;;;;8.77;7.30;;;11.10;99.90;;;;;;6273316;28;20470;-63
2022/11/24 09:42:10;;;;;;;8.00;7.20;;;11.20;99.90;;;;;;6255850;28;20482;-61
2022/11/24 09:45:26;;;;;;;9.90;7.57;;;11.30;99.90;;;;;;6248562;28;20472;-61
2022/11/24 09:48:53;;;;;;;9.03;8.13;;;11.60;99.90;;;;;;6251673;28;20950;-61
2022/11/24 09:51:57;;;;;;;10.20;8.20;;;11.80;99.60;;;;;;6272920;28;20478;-62
2022/11/24 09:55:05;;;;;;;9.70;8.80;;;11.90;99.70;;;;;;6272690;28;20485;-61
2022/11/24 09:58:24;;;;;;;9.80;8.07;;;11.90;99.40;;;;;;6272774;28;20467;-62
2022/11/24 10:01:30;;;;;;;9.87;7.50;;;11.40;99.90;;;;;;6273116;28;20478;-61
2022/11/24 10:04:39;;;;;;;11.53;9.03;;;11.30;99.90;;;;;;6272811;28;20552;-62
2022/11/24 10:07:48;;;;;;;11.97;8.10;;;11.20;99.90;;;;;;6250783;28;20470;-62
2022/11/24 10:10:58;;;;;;;10.60;8.87;;;11.50;99.90;;;;;;6266575;28;20770;-61
2022/11/24 10:14:24;;;;;;;10.23;9.30;;;11.90;99.90;;;;;;6262739;28;20490;-60
2022/11/24 10:17:44;;;;;;;12.93;9.47;;;12.50;99.90;;;;;;6266051;28;20562;-61
2022/11/24 10:20:57;;;;;;;12.20;11.00;;;12.80;99.30;;;;;;6279406;28;20481;-62
2022/11/24 10:24:24;;;;;;;16.10;12.23;;;13.30;99.00;;;;;;6280193;28;20477;-62
2022/11/24 10:27:35;;;;;;;10.90;9.80;;;13.50;98.30;;;;;;6262887;28;20481;-61
2022/11/24 10:30:39;;;;;;;12.60;10.93;;;13.40;97.90;;;;;;6273217;28;20427;-61
2022/11/24 10:33:43;;;;;;;11.73;10.07;;;13.40;98.10;;;;;;6272387;28;20474;-61
2022/11/24 10:36:54;;;;;;;11.37;10.30;;;13.50;97.60;;;;;;6272394;28;20472;-61
2022/11/24 10:40:04;;;;;;;11.23;10.10;;;13.30;97.90;;;;;;6272326;28;20792;-61
2022/11/24 10:43:11;;;;;;;11.10;9.20;;;13.50;97.90;;;;;;6272413;28;20969;-62
2022/11/24 10:46:19;;;;;;;11.40;10.30;;;13.80;97.30;;;;;;6272169;28;20819;-61
2022/11/24 10:49:27;;;;;;;15.20;12.70;;;13.90;95.60;;;;;;6272645;28;20474;-61
2022/11/24 10:52:36;;;;;;;16.10;11.80;;;14.20;96.10;;;;;;6263828;28;20963;-61
2022/11/24 10:56:00;;;;;;;15.17;10.43;;;14.10;95.40;;;;;;6247664;28;20809;-61
2022/11/24 10:59:21;;;;;;;11.10;9.13;;;15.00;95.60;;;;;;6247250;28;20483;-61
2022/11/24 11:02:31;;;;;;;12.30;9.43;;;19.10;91.40;;;;;;6247580;28;20471;-62
2022/11/24 11:05:41;;;;;;;12.40;10.23;;;22.20;69.20;;;;;;6250639;28;20314;-61
2022/11/24 11:08:44;;;;;;;9.83;9.00;;;25.80;56.50;;;;;;6252417;28;20228;-61
2022/11/24 11:11:48;;;;;;;9.60;8.63;;;28.50;45.10;;;;;;6252222;28;20238;-62
2022/11/24 11:14:53;;;;;;;9.27;8.47;;;30.20;37.20;;;;;;6251769;28;20247;-62
2022/11/24 11:17:58;;;;;;;10.00;8.83;;;32.40;32.20;;;;;;6252487;28;20243;-62
2022/11/24 11:21:03;;;;;;;8.88;8.05;;;33.90;27.90;;;;;;6252359;28;20242;-63
2022/11/24 11:24:16;;;;;;;8.85;8.05;;;35.40;26.70;;;;;;6267921;28;20239;-63
2022/11/24 11:27:21;;;;;;;8.00;7.30;;;36.20;24.50;;;;;;6276459;28;20244;-63
2022/11/24 11:30:27;;;;;;;7.22;6.22;;;37.20;23.50;;;;;;6276898;28;20235;-62
2022/11/24 11:33:59;;;;;;;9.65;6.65;;;37.30;21.60;;;;;;6278759;28;20568;-64
2022/11/24 11:37:09;;;;;;;8.52;6.53;;;37.20;21.20;;;;;;6277142;28;20296;-63
2022/11/24 11:40:16;;;;;;;7.50;6.68;;;37.30;21.00;;;;;;6277573;28;20239;-63
2022/11/24 11:43:26;;;;;;;9.13;8.32;;;37.10;21.00;;;;;;6278314;28;20234;-65
2022/11/24 11:46:32;;;;;;;11.80;10.30;;;37.70;20.80;;;;;;6276758;28;20729;-62
2022/11/24 11:49:38;;;;;;;11.70;10.50;;;36.60;21.50;;;;;;6276593;28;20289;-63
2022/11/24 11:52:59;;;;;;;12.60;11.32;;;36.50;21.30;;;;;;6275523;28;20593;-62
2022/11/24 11:56:10;;;;;;;10.25;9.35;;;36.60;21.70;;;;;;6276118;28;20239;-62
2022/11/24 11:59:36;;;;;;;11.05;10.10;;;37.10;21.30;;;;;;6276090;28;20326;-64
2022/11/24 12:03:21;;;;;;;10.63;9.63;;;36.70;21.60;;;;;;6276160;28;20247;-63
2022/11/24 12:06:42;;;;;;;10.38;9.40;;;35.90;21.50;;;;;;6262254;28;20319;-62
2022/11/24 12:09:57;;;;;;;10.65;9.68;;;35.30;22.60;;;;;;6251020;28;20237;-61
2022/11/24 12:13:24;;;;;;;10.15;9.32;;;35.00;22.70;;;;;;6255324;28;20234;-63
2022/11/24 12:16:34;;;;;;;11.70;10.70;;;32.80;23.50;;;;;;6249885;28;20246;-65
2022/11/24 12:19:57;;;;;;;12.43;11.30;;;30.20;26.50;;;;;;6250483;28;20363;-65
2022/11/24 12:23:10;;;;;;;10.87;9.97;;;29.90;27.70;;;;;;6257295;28;20239;-64
2022/11/24 12:26:21;;;;;;;18.67;17.03;;;29.60;27.40;;;;;;6274568;28;20242;-64
2022/11/24 12:29:49;;;;;;;10.77;9.63;;;29.00;28.50;;;;;;6275899;28;20241;-64
2022/11/24 12:33:28;;;;;;;7.00;6.30;;;29.50;27.10;;;;;;6266754;28;20862;-64
2022/11/24 12:36:44;;;;;;;8.10;4.90;;;29.20;27.60;;;;;;6274425;28;20232;-64
2022/11/24 12:39:56;;;;;;;5.03;4.53;;;31.30;26.20;;;;;;6275458;28;20222;-65
2022/11/24 12:43:09;;;;;;;7.30;4.30;;;32.80;24.50;;;;;;6274743;28;20223;-64
2022/11/24 12:46:19;;;;;;;4.63;4.20;;;33.90;23.70;;;;;;6274295;28;20235;-65
2022/11/24 12:49:30;;;;;;;5.35;3.92;;;34.30;22.50;;;;;;6274954;28;20361;-64
2022/11/24 12:52:39;;;;;;;3.53;3.22;;;32.80;23.00;;;;;;6274544;28;20345;-63
2022/11/24 12:55:43;;;;;;;4.17;3.47;;;31.50;23.40;;;;;;6274457;28;20238;-62
2022/11/24 12:58:55;;;;;;;3.90;3.50;;;30.80;24.30;;;;;;6274604;28;20572;-63
2022/11/24 13:02:10;;;;;;;4.23;3.20;;;29.50;24.90;;;;;;6224226;28;20229;-64
2022/11/24 13:05:23;;;;;;;3.77;2.50;;;26.50;27.70;;;;;;6265166;28;20664;-62
2022/11/24 13:08:29;;;;;;;5.37;3.13;;;23.60;29.80;;;;;;6249088;28;20228;-62
2022/11/24 13:11:41;;;;;;;6.20;2.67;;;21.30;32.90;;;;;;6252342;28;20639;-62
2022/11/24 13:14:46;;;;;;;4.17;3.77;;;20.70;35.30;;;;;;6258068;28;20236;-60
2022/11/24 13:17:49;;;;;;;4.77;4.37;;;22.20;34.30;;;;;;6249073;28;20232;-62
2022/11/24 13:21:46;;;;;;;5.30;4.00;;;23.10;33.50;;;;;;6248971;28;20323;-62
2022/11/24 13:25:11;;;;;;;3.80;3.23;;;24.20;32.70;;;;;;6270377;28;20577;-61
2022/11/24 13:28:50;;;;;;;5.47;3.77;;;24.10;32.80;;;;;;6270067;28;20752;-63
2022/11/24 13:32:50;;;;;;;3.93;3.50;;;24.90;33.10;;;;;;6265083;28;20223;-63
2022/11/24 13:36:29;;;;;;;4.77;3.73;;;26.90;30.80;;;;;;6269032;28;20227;-63
2022/11/24 13:49:21;;;;;;;6.93;5.70;;;31.50;25.90;;;;;;6188571;22;20317;-62
2022/11/24 13:52:43;;;;;;;7.30;5.47;;;31.80;25.30;;;;;;6178539;28;20225;-62
2022/11/24 13:55:57;;;;;;;7.50;6.90;;;31.30;25.40;;;;;;6180360;28;20304;-62
2022/11/24 13:59:14;;;;;;;7.00;6.10;;;30.70;26.10;;;;;;6160040;28;20249;-61
2022/11/24 14:02:23;;;;;;;7.50;6.80;;;29.60;27.00;;;;;;6151258;28;20245;-62
2022/11/24 14:05:36;;;;;;;6.40;5.43;;;28.30;28.20;;;;;;6150414;28;20222;-61
2022/11/24 14:08:39;;;;;;;4.43;4.03;;;26.20;28.70;;;;;;6161056;28;20226;-62
2022/11/24 14:11:43;;;;;;;10.03;9.27;;;24.30;30.80;;;;;;6166996;28;20222;-62
2022/11/24 14:14:47;;;;;;;7.20;6.50;;;22.40;33.70;;;;;;6159695;28;20238;-62
2022/11/24 14:17:50;;;;;;;7.77;6.97;;;20.30;37.20;;;;;;6151452;28;20615;-63
2022/11/24 14:20:55;;;;;;;11.60;7.87;;;19.20;39.60;;;;;;6151450;28;20231;-61
2022/11/24 14:24:00;;;;;;;9.30;6.17;;;18.40;41.10;;;;;;6151198;28;20552;-61
2022/11/24 14:27:04;;;;;;;3.63;3.33;;;17.50;43.00;;;;;;6151542;28;20981;-61
2022/11/24 14:30:19;;;;;;;6.73;4.40;;;16.80;44.60;;;;;;6151336;28;20478;-61
2022/11/24 14:33:22;;;;;;;8.77;4.77;;;16.20;46.40;;;;;;6171880;28;20474;-61
2022/11/24 14:36:26;;;;;;;5.10;4.30;;;15.50;48.30;;;;;;6175071;28;20562;-61
2022/11/24 14:39:30;;;;;;;5.87;5.03;;;14.90;50.40;;;;;;6174905;28;20478;-60
2022/11/24 14:42:33;;;;;;;5.40;4.77;;;14.50;51.70;;;;;;6169406;28;20463;-61
2022/11/24 14:45:38;;;;;;;6.40;4.23;;;14.10;54.00;;;;;;6170172;28;20916;-61
2022/11/24 14:48:48;;;;;;;4.30;3.90;;;13.80;55.90;;;;;;6172932;28;20496;-62
2022/11/24 14:51:56;;;;;;;4.83;3.70;;;13.50;57.60;;;;;;6161022;28;20470;-61
2022/11/24 14:55:01;;;;;;;4.70;3.90;;;13.40;59.00;;;;;;6175263;28;20788;-61
2022/11/24 14:58:32;;;;;;;6.37;4.93;;;13.30;60.20;;;;;;6154950;28;20474;-61
2022/11/24 15:01:42;;;;;;;8.07;4.67;;;13.10;63.20;;;;;;6151453;28;20554;-61
2022/11/24 15:04:57;;;;;;;6.63;4.27;;;12.90;66.00;;;;;;6151295;28;20478;-62
2022/11/24 15:08:13;;;;;;;5.90;5.10;;;12.80;68.20;;;;;;6150810;28;20585;-61
2022/11/24 15:11:16;;;;;;;8.67;5.70;;;12.70;71.70;;;;;;6151142;28;20479;-61
2022/11/24 15:14:32;;;;;;;6.57;5.00;;;12.50;74.70;;;;;;6151165;28;20483;-61
2022/11/24 15:17:36;;;;;;;9.23;4.60;;;12.40;77.00;;;;;;6150411;28;20914;-62
2022/11/24 15:20:44;;;;;;;9.47;5.47;;;12.40;79.30;;;;;;6150971;28;20471;-60
2022/11/24 15:24:13;;;;;;;7.97;5.23;;;12.20;81.60;;;;;;6150987;28;20482;-61
2022/11/24 15:27:16;;;;;;;6.83;4.90;;;12.10;84.80;;;;;;6151016;28;20481;-61
2022/11/24 15:30:19;;;;;;;13.20;11.90;;;12.00;88.50;;;;;;6154648;28;20475;-62
2022/11/24 15:33:23;;;;;;;9.67;8.03;;;11.80;89.40;;;;;;6150592;28;20479;-61
2022/11/24 15:36:26;;;;;;;8.47;6.27;;;11.60;90.80;;;;;;6150157;28;20483;-61
2022/11/24 15:39:31;;;;;;;13.00;11.70;;;11.50;91.60;;;;;;6151013;28;20948;-60
2022/11/24 15:42:34;;;;;;;14.27;12.10;;;11.40;92.60;;;;;;6142162;28;20443;-60
2022/11/24 15:45:37;;;;;;;16.90;11.80;;;11.30;93.20;;;;;;6151482;28;20451;-60
2022/11/24 15:48:40;;;;;;;19.07;11.97;;;11.10;93.80;;;;;;6152484;28;20819;-60
2022/11/24 15:51:45;;;;;;;12.53;9.03;;;11.00;94.70;;;;;;6155892;28;20442;-59
2022/11/24 15:54:54;;;;;;;10.07;8.23;;;10.90;95.20;;;;;;6157908;28;20474;-61
2022/11/24 15:57:57;;;;;;;13.43;8.67;;;10.80;95.60;;;;;;6155392;28;20486;-59
2022/11/24 16:01:00;;;;;;;9.03;7.07;;;10.80;96.20;;;;;;6155861;28;20486;-61
2022/11/24 16:04:04;;;;;;;9.20;7.47;;;10.70;96.90;;;;;;6161430;28;20474;-61
2022/11/24 16:07:11;;;;;;;14.33;9.17;;;10.60;97.20;;;;;;6169543;28;20474;-61
2022/11/24 16:10:23;;;;;;;11.57;8.30;;;10.50;97.60;;;;;;6156933;28;20864;-61
2022/11/24 16:13:26;;;;;;;10.10;8.63;;;10.40;98.00;;;;;;6131356;29;20487;-61
2022/11/24 16:16:30;;;;;;;9.97;8.30;;;10.30;98.60;;;;;;6130108;29;20487;-60
2022/11/24 16:19:33;;;;;;;12.73;10.10;;;10.20;98.70;;;;;;6130105;29;20558;-59